Time;durP1;ratioP1;P1;durP2;ratioP2;P2;SDS_P1;SDS_P2;PMS_P1;PMS_P2;Temp;Humidity;BMP_temperature;BMP_pressure;BME280_temperature;BME280_humidity;BME280_pressure;Samples;Min_cycle;Max_cycle;Signal;HPM_P1;HPM_P2
2022/03/22 00:00:29;;;;;;;;;34.00;31.33;;;;;9.58;57.60;100623.88;5015121;28;45441;-72
2022/03/22 00:02:55;;;;;;;;;34.33;30.00;;;;;9.55;57.16;100626.56;5030893;28;45354;-73
2022/03/22 00:05:22;;;;;;;;;37.67;32.67;;;;;9.54;57.47;100627.47;5015482;28;45396;-73
2022/03/22 00:07:50;;;;;;;;;35.67;32.00;;;;;9.52;57.85;100630.09;5013319;28;47094;-73
2022/03/22 00:10:16;;;;;;;;;32.33;28.67;;;;;9.51;57.41;100627.50;5015353;28;45428;-72
2022/03/22 00:12:42;;;;;;;;;27.67;26.67;;;;;9.50;57.47;100633.63;5011811;28;45431;-73
2022/03/22 00:15:08;;;;;;;;;32.33;25.33;;;;;9.45;57.61;100636.31;5015306;28;45320;-73
2022/03/22 00:17:35;;;;;;;;;28.00;27.33;;;;;9.42;57.14;100639.84;5015073;28;45480;-73
2022/03/22 00:20:00;;;;;;;;;30.33;25.33;;;;;9.41;57.82;100638.09;5015285;28;45425;-73
2022/03/22 00:22:27;;;;;;;;;28.67;26.67;;;;;9.40;57.79;100640.75;5013436;28;45463;-73
2022/03/22 00:24:53;;;;;;;;;37.67;32.67;;;;;9.37;57.45;100639.06;4997896;28;45637;-73
2022/03/22 00:27:18;;;;;;;;;32.00;27.67;;;;;9.36;57.64;100637.31;5014264;28;45692;-72
2022/03/22 00:29:44;;;;;;;;;34.00;28.00;;;;;9.36;57.53;100637.31;5015281;28;45407;-72
2022/03/22 00:32:10;;;;;;;;;33.33;31.00;;;;;9.36;57.45;100637.31;5009816;28;45488;-72
2022/03/22 00:34:44;;;;;;;;;31.33;27.67;;;;;9.35;57.46;100646.09;4994558;28;45556;-72
2022/03/22 00:37:13;;;;;;;;;34.67;30.00;;;;;9.34;57.64;100636.44;4993979;28;45443;-73
2022/03/22 00:39:39;;;;;;;;;30.33;27.00;;;;;9.31;57.82;100635.59;4995361;28;45321;-72
2022/03/22 00:42:04;;;;;;;;;36.67;32.33;;;;;9.29;57.76;100643.50;4994605;28;45919;-72
2022/03/22 00:44:30;;;;;;;;;27.33;25.67;;;;;9.27;57.83;100640.03;4977623;28;45523;-72
2022/03/22 00:46:55;;;;;;;;;35.67;30.00;;;;;9.25;57.42;100635.66;4994618;28;45575;-73
2022/03/22 00:49:21;;;;;;;;;35.00;30.33;;;;;9.21;57.79;100632.22;4995226;28;45379;-73
2022/03/22 00:51:47;;;;;;;;;15.67;15.33;;;;;9.19;57.33;100641.88;4995030;28;45357;-72
2022/03/22 00:54:13;;;;;;;;;33.00;27.33;;;;;9.17;57.17;100640.13;4994840;28;45360;-72
2022/03/22 00:56:39;;;;;;;;;29.00;26.67;;;;;9.14;57.51;100632.28;4988889;28;46446;-73
2022/03/22 01:01:49;;;;;;;;;31.33;29.67;;;;;9.09;57.97;100637.56;4995285;28;45447;-72
2022/03/22 01:04:14;;;;;;;;;30.33;29.67;;;;;9.06;58.29;100634.97;4994839;28;45446;-73
2022/03/22 01:06:39;;;;;;;;;29.00;25.67;;;;;9.03;57.92;100642.91;4994329;28;45587;-73
2022/03/22 01:09:05;;;;;;;;;38.00;33.00;;;;;9.01;57.96;100642.06;4994943;28;45414;-72
2022/03/22 01:11:30;;;;;;;;;35.00;29.33;;;;;8.98;58.14;100634.19;4974740;28;45439;-72
2022/03/22 01:13:56;;;;;;;;;30.33;27.00;;;;;8.96;58.25;100633.31;4994949;28;45510;-73
2022/03/22 01:16:21;;;;;;;;;30.00;29.00;;;;;8.93;57.54;100639.47;4994705;28;46209;-73
2022/03/22 01:18:46;;;;;;;;;32.67;30.33;;;;;8.92;57.80;100639.50;4995135;28;45253;-73
2022/03/22 01:21:12;;;;;;;;;30.00;28.00;;;;;8.90;57.51;100643.88;4994811;28;45598;-73
2022/03/22 01:23:38;;;;;;;;;32.67;29.00;;;;;8.87;57.59;100638.69;5009710;28;45336;-73
2022/03/22 01:26:05;;;;;;;;;31.33;26.33;;;;;8.85;57.99;100635.19;4993686;28;46302;-73
2022/03/22 01:28:31;;;;;;;;;29.67;26.00;;;;;8.82;58.29;100633.44;4994736;28;45363;-73
2022/03/22 01:30:57;;;;;;;;;33.33;30.67;;;;;8.81;58.53;100634.34;5009908;28;45530;-73
2022/03/22 01:33:22;;;;;;;;;36.67;33.67;;;;;8.78;59.12;100631.72;5009552;28;45227;-73
2022/03/22 01:35:47;;;;;;;;;39.33;30.00;;;;;8.74;59.04;100630.88;5014148;28;46651;-73
2022/03/22 01:38:13;;;;;;;;;33.00;30.00;;;;;8.72;58.83;100626.50;5013450;28;45323;-72
2022/03/22 01:40:39;;;;;;;;;36.00;32.67;;;;;8.68;59.38;100630.94;5014209;28;45553;-73
2022/03/22 01:43:05;;;;;;;;;32.67;29.33;;;;;8.64;59.00;100626.59;5014675;28;45386;-73
2022/03/22 01:45:31;;;;;;;;;36.33;31.67;;;;;8.60;58.87;100626.63;5013919;28;45371;-73
2022/03/22 01:47:59;;;;;;;;;30.33;26.00;;;;;8.54;59.17;100634.56;5013786;28;45411;-73
2022/03/22 01:50:25;;;;;;;;;29.33;28.00;;;;;8.50;60.33;100624.97;5011690;28;45493;-73
2022/03/22 01:52:51;;;;;;;;;36.67;30.67;;;;;8.47;59.33;100622.34;5013966;28;45469;-73
2022/03/22 01:55:19;;;;;;;;;30.67;27.00;;;;;8.46;59.32;100623.22;5013631;28;45319;-72
2022/03/22 01:57:45;;;;;;;;;31.67;30.67;;;;;8.44;59.77;100627.63;5012493;28;45423;-72
2022/03/22 02:00:21;;;;;;;;;31.33;27.67;;;;;8.43;60.12;100625.88;5010090;28;45495;-74
2022/03/22 02:05:55;;;;;;;;;28.33;27.00;;;;;8.38;59.64;100629.41;5013713;28;45362;-73
2022/03/22 02:08:24;;;;;;;;;34.67;30.67;;;;;8.36;59.54;100620.69;5013471;28;45367;-72
2022/03/22 02:10:50;;;;;;;;;31.33;26.67;;;;;8.38;59.56;100625.91;5013419;28;45471;-72
2022/03/22 02:13:16;;;;;;;;;30.00;26.33;;;;;8.40;59.64;100626.75;4996330;28;45507;-73
2022/03/22 02:15:45;;;;;;;;;35.00;31.00;;;;;8.40;60.45;100622.38;5012053;28;47887;-73
2022/03/22 02:18:11;;;;;;;;;38.33;33.67;;;;;8.38;60.05;100625.91;5013872;28;45357;-73
2022/03/22 02:20:37;;;;;;;;;29.33;28.33;;;;;8.35;59.47;100624.19;5011983;28;45581;-72
2022/03/22 02:23:10;;;;;;;;;32.00;26.33;;;;;8.33;59.91;100619.81;5013586;28;45352;-73
2022/03/22 02:25:36;;;;;;;;;29.33;26.67;;;;;8.32;59.82;100633.84;5013396;28;45630;-73
2022/03/22 02:28:05;;;;;;;;;26.33;24.67;;;;;8.29;60.08;100633.81;5013152;28;45369;-72
2022/03/22 02:30:32;;;;;;;;;29.67;26.33;;;;;8.30;60.41;100625.06;5013694;28;45390;-73
2022/03/22 02:33:01;;;;;;;;;37.00;31.00;;;;;8.30;59.55;100618.06;5013378;28;45339;-73
2022/03/22 02:35:28;;;;;;;;;34.00;29.00;;;;;8.32;60.23;100623.34;5012977;28;45555;-72
2022/03/22 02:37:53;;;;;;;;;30.33;30.00;;;;;8.33;60.30;100622.44;5013500;28;45469;-73
2022/03/22 02:40:19;;;;;;;;;16.33;14.00;;;;;8.33;60.29;100614.56;5012701;28;45470;-73
2022/03/22 02:42:50;;;;;;;;;30.33;27.00;;;;;8.32;59.98;100624.22;5013173;28;45430;-73
2022/03/22 02:45:17;;;;;;;;;31.67;30.00;;;;;8.31;59.92;100618.94;5012628;28;45536;-72
2022/03/22 02:47:44;;;;;;;;;27.00;27.00;;;;;8.32;59.63;100620.69;5013409;28;45464;-73
2022/03/22 02:50:10;;;;;;;;;27.67;27.67;;;;;8.32;59.63;100620.69;5015012;28;45442;-72
2022/03/22 02:52:37;;;;;;;;;32.33;27.67;;;;;8.31;59.71;100619.78;5015588;28;45457;-73
2022/03/22 02:55:06;;;;;;;;;32.33;30.33;;;;;8.32;59.39;100616.31;5016715;28;46641;-73
2022/03/22 02:57:32;;;;;;;;;31.33;28.00;;;;;8.33;59.86;100632.97;5016719;28;45398;-72
2022/03/22 02:59:57;;;;;;;;;35.00;28.33;;;;;8.34;60.07;100627.69;5016703;28;45327;-72
2022/03/22 03:02:22;;;;;;;;;39.00;34.00;;;;;8.34;59.65;100618.94;5015909;28;45636;-73
2022/03/22 03:04:48;;;;;;;;;36.67;33.67;;;;;8.34;59.93;100632.09;4999148;28;46420;-72
2022/03/22 03:07:13;;;;;;;;;30.67;29.00;;;;;8.34;59.81;100629.44;5015989;28;45512;-73
2022/03/22 03:09:39;;;;;;;;;71.25;55.00;;;;;8.34;60.03;100634.72;5016743;28;45530;-73
2022/03/22 03:12:05;;;;;;;;;37.67;32.67;;;;;8.34;59.33;100632.97;5016157;28;45574;-78
2022/03/22 03:14:39;;;;;;;;;38.33;35.33;;;;;8.35;59.04;100633.81;5016483;28;46269;-78
2022/03/22 03:17:16;;;;;;;;;43.00;37.00;;;;;8.34;59.18;100642.59;5012012;28;45405;-78
2022/03/22 03:19:42;;;;;;;;;34.67;31.67;;;;;8.33;59.16;100639.09;5016608;28;45308;-78
2022/03/22 03:22:08;;;;;;;;;43.00;36.67;;;;;8.33;58.84;100643.47;5015572;28;45455;-78
2022/03/22 03:24:35;;;;;;;;;37.00;34.67;;;;;8.31;58.74;100634.69;4998590;28;46495;-78
2022/03/22 03:27:01;;;;;;;;;39.33;36.00;;;;;8.33;58.82;100646.09;5016222;28;45478;-78
2022/03/22 03:29:27;;;;;;;;;32.67;27.67;;;;;8.32;58.54;100636.47;5016507;28;45378;-78
2022/03/22 03:31:52;;;;;;;;;35.33;32.67;;;;;8.29;58.53;100645.22;5014720;28;45517;-78
2022/03/22 03:34:18;;;;;;;;;40.00;33.33;;;;;8.24;58.25;100641.72;5016505;28;45398;-78
2022/03/22 03:36:44;;;;;;;;;41.67;34.00;;;;;8.22;58.54;100643.47;5016189;28;45430;-78
2022/03/22 03:39:11;;;;;;;;;38.67;34.33;;;;;8.21;58.52;100648.78;5015860;28;45483;-78
2022/03/22 03:41:56;;;;;;;;;47.33;35.67;;;;;8.20;58.46;100636.53;5015760;28;45432;-78
2022/03/22 03:47:16;;;;;;;;;36.00;32.33;;;;;8.15;58.16;100644.44;5015386;28;45331;-78
2022/03/22 03:49:44;;;;;;;;;38.00;34.67;;;;;8.13;58.49;100646.19;4997934;28;45423;-78
2022/03/22 03:52:12;;;;;;;;;44.67;36.33;;;;;8.10;58.45;100648.81;4997381;28;45562;-79
2022/03/22 03:54:38;;;;;;;;;44.67;36.33;;;;;8.09;58.42;100656.72;5015373;28;45379;-79
2022/03/22 03:57:04;;;;;;;;;37.00;34.00;;;;;8.07;58.58;100649.72;5015738;28;45417;-78
2022/03/22 03:59:30;;;;;;;;;44.00;34.33;;;;;8.05;58.41;100654.09;4998296;28;45526;-79
2022/03/22 04:01:55;;;;;;;;;41.67;32.33;;;;;8.03;58.80;100657.63;5015342;28;45373;-78
2022/03/22 04:04:21;;;;;;;;;36.33;32.33;;;;;8.02;58.54;100655.88;5015749;28;45470;-78
2022/03/22 04:06:47;;;;;;;;;48.00;38.67;;;;;8.01;58.72;100660.25;5015590;28;45425;-78
2022/03/22 04:09:14;;;;;;;;;38.33;34.67;;;;;7.99;58.56;100663.78;5015518;28;45409;-78
2022/03/22 04:11:39;;;;;;;;;34.00;30.33;;;;;7.96;58.60;100662.03;5015467;28;45459;-78
2022/03/22 04:14:05;;;;;;;;;37.00;34.00;;;;;7.93;58.54;100662.03;5015260;28;46001;-78
2022/03/22 04:16:31;;;;;;;;;40.33;36.33;;;;;7.88;58.55;100668.19;5015885;28;45433;-78
2022/03/22 04:18:56;;;;;;;;;38.00;33.00;;;;;7.81;58.73;100667.34;5015806;28;45406;-78
2022/03/22 04:21:22;;;;;;;;;33.00;30.00;;;;;7.75;58.73;100663.88;5015323;28;45271;-78
2022/03/22 04:23:47;;;;;;;;;34.67;30.67;;;;;7.71;58.91;100663.00;5015216;28;45427;-78
2022/03/22 04:26:13;;;;;;;;;46.00;36.67;;;;;7.66;59.09;100664.78;5015688;28;45366;-78
2022/03/22 04:34:05;;;;;;;;;35.33;34.00;;;;;7.62;59.32;100663.03;5014999;28;45369;-78
2022/03/22 04:36:31;;;;;;;;;40.00;35.00;;;;;7.58;59.42;100662.19;4997565;28;45666;-78
2022/03/22 04:38:57;;;;;;;;;35.67;33.67;;;;;7.57;59.33;100657.81;5015052;28;45292;-78
2022/03/22 04:41:23;;;;;;;;;43.00;34.33;;;;;7.56;59.56;100660.44;5014522;28;45307;-79
2022/03/22 04:43:49;;;;;;;;;37.67;33.33;;;;;7.54;59.37;100670.09;5030332;28;47166;-79
2022/03/22 04:46:18;;;;;;;;;38.67;34.33;;;;;7.52;59.41;100666.59;5014795;28;45592;-78
2022/03/22 04:48:47;;;;;;;;;40.67;34.67;;;;;7.50;59.43;100676.22;5014620;28;45417;-78
2022/03/22 04:56:47;;;;;;;;;29.67;28.00;;;;;7.45;59.42;100672.72;5014931;28;45500;-78
2022/03/22 04:59:15;;;;;;;;;36.00;33.67;;;;;7.41;59.30;100674.47;5014709;28;45557;-78
2022/03/22 05:01:44;;;;;;;;;46.33;37.00;;;;;7.39;59.79;100684.09;4996941;28;45561;-78
2022/03/22 05:04:10;;;;;;;;;49.33;38.00;;;;;7.36;59.80;100673.63;5014820;28;45364;-79
2022/03/22 05:06:37;;;;;;;;;35.33;33.33;;;;;7.34;59.09;100678.88;5014389;28;45369;-78
2022/03/22 05:09:04;;;;;;;;;37.33;32.67;;;;;7.32;59.45;100690.25;5014486;28;45471;-78
2022/03/22 05:11:30;;;;;;;;;34.33;31.67;;;;;7.27;59.69;100690.25;5013199;28;45310;-78
2022/03/22 05:13:56;;;;;;;;;41.00;37.00;;;;;7.23;59.44;100692.88;5014192;28;46189;-78
2022/03/22 05:16:23;;;;;;;;;35.33;29.33;;;;;7.17;59.64;100688.53;5003953;28;45364;-78
2022/03/22 05:18:50;;;;;;;;;43.33;35.33;;;;;7.14;59.64;100687.66;5014902;28;45530;-77
2022/03/22 05:21:17;;;;;;;;;40.00;35.33;;;;;7.12;59.57;100694.63;5014815;28;45494;-78
2022/03/22 05:23:44;;;;;;;;;40.00;33.00;;;;;7.10;59.77;100691.13;5012648;28;46501;-78
2022/03/22 05:26:10;;;;;;;;;35.67;33.33;;;;;7.07;59.28;100699.00;5013781;28;45485;-78
2022/03/22 05:28:37;;;;;;;;;36.33;32.00;;;;;7.02;59.46;100701.66;5014581;28;45351;-78
2022/03/22 05:31:03;;;;;;;;;40.67;35.00;;;;;6.98;59.63;100702.53;5014200;28;45502;-78
2022/03/22 05:33:29;;;;;;;;;40.33;35.33;;;;;6.96;59.72;100706.88;5013814;28;45461;-78
2022/03/22 05:35:54;;;;;;;;;39.00;29.00;;;;;6.92;59.75;100711.25;4996182;28;45429;-78
2022/03/22 05:38:20;;;;;;;;;41.67;34.67;;;;;6.92;60.05;100713.88;5012754;28;45953;-78
2022/03/22 05:40:45;;;;;;;;;39.67;35.00;;;;;6.93;59.95;100720.00;5014269;28;45528;-78
2022/03/22 05:43:11;;;;;;;;;36.33;34.00;;;;;6.93;59.90;100720.00;5014155;28;45489;-78
2022/03/22 05:45:36;;;;;;;;;39.00;33.33;;;;;6.93;59.61;100714.75;5013804;28;45548;-79
2022/03/22 05:48:02;;;;;;;;;45.00;37.67;;;;;6.94;59.65;100717.38;5014125;28;45421;-78
2022/03/22 05:50:28;;;;;;;;;36.00;35.33;;;;;6.96;59.40;100727.84;4992055;28;45636;-79
2022/03/22 05:52:53;;;;;;;;;37.67;33.33;;;;;6.97;59.42;100721.75;5013589;28;45884;-79
2022/03/22 05:55:19;;;;;;;;;43.00;37.67;;;;;6.98;59.19;100728.75;5013412;28;45470;-79
2022/03/22 05:57:45;;;;;;;;;40.33;34.33;;;;;6.97;59.13;100733.09;5013914;28;45413;-79
2022/03/22 06:00:12;;;;;;;;;36.33;34.00;;;;;6.98;59.15;100737.47;5013035;28;45352;-79
2022/03/22 06:02:39;;;;;;;;;37.00;32.33;;;;;6.97;59.56;100734.84;5013213;28;45663;-79
2022/03/22 06:05:08;;;;;;;;;35.33;33.00;;;;;6.97;59.58;100742.72;5013973;28;45345;-79
2022/03/22 06:07:34;;;;;;;;;39.00;35.67;;;;;6.97;59.59;100734.84;4995604;28;45428;-79
2022/03/22 06:09:59;;;;;;;;;39.67;37.00;;;;;6.97;59.62;100745.34;5013725;28;45252;-79
2022/03/22 06:12:26;;;;;;;;;40.67;35.67;;;;;6.97;59.61;100748.84;5012087;28;45398;-80
2022/03/22 06:15:14;;;;;;;;;45.00;35.00;;;;;6.99;59.09;100740.97;5000523;28;45320;-79
2022/03/22 06:17:37;;;;;;;;;40.33;34.33;;;;;7.02;58.87;100745.34;5013123;28;45405;-79
2022/03/22 06:20:03;;;;;;;;;42.67;35.33;;;;;7.03;59.27;100749.72;5013726;28;45488;-79
2022/03/22 06:22:29;;;;;;;;;35.67;32.67;;;;;7.03;58.42;100745.34;5012952;28;46296;-79
2022/03/22 06:24:54;;;;;;;;;36.00;33.33;;;;;7.03;58.86;100747.97;5016514;28;45605;-79
2022/03/22 06:27:20;;;;;;;;;36.67;35.33;;;;;7.08;58.59;100750.56;4998618;28;45454;-79
2022/03/22 06:29:46;;;;;;;;;36.00;33.67;;;;;7.07;58.70;100748.81;5015418;28;45561;-80
2022/03/22 06:32:12;;;;;;;;;34.00;32.33;;;;;7.10;58.27;100762.81;5016310;28;46160;-78
2022/03/22 06:34:38;;;;;;;;;38.00;33.67;;;;;7.11;58.27;100748.84;5016102;28;45558;-79
2022/03/22 06:37:03;;;;;;;;;27.00;25.00;;;;;7.14;58.10;100756.72;5016095;28;45552;-79
2022/03/22 06:39:29;;;;;;;;;38.00;32.67;;;;;7.17;58.23;100756.72;5016255;28;45488;-79
2022/03/22 06:41:55;;;;;;;;;36.00;32.67;;;;;7.23;57.84;100759.31;5016669;28;45914;-68
2022/03/22 06:44:20;;;;;;;;;35.33;33.33;;;;;7.32;58.21;100761.94;5016108;28;45444;-68
2022/03/22 06:46:46;;;;;;;;;37.00;32.00;;;;;7.42;57.57;100769.81;5015807;28;45434;-68
2022/03/22 06:49:12;;;;;;;;;41.00;34.67;;;;;7.50;57.95;100768.06;5016618;28;45735;-68
2022/03/22 06:51:37;;;;;;;;;33.00;30.00;;;;;7.56;57.93;100774.16;4997541;28;48422;-68
2022/03/22 06:54:03;;;;;;;;;37.67;31.67;;;;;7.62;57.45;100781.16;5016058;28;45306;-68
2022/03/22 06:56:29;;;;;;;;;46.33;37.00;;;;;7.68;57.28;100781.16;5014898;28;45574;-68
2022/03/22 06:58:54;;;;;;;;;41.67;34.33;;;;;7.72;57.15;100780.25;5016799;28;45500;-65
2022/03/22 07:01:20;;;;;;;;;36.00;31.33;;;;;7.77;56.56;100775.88;5013802;28;46239;-68
2022/03/22 07:03:45;;;;;;;;;39.33;35.67;;;;;7.81;56.48;100776.75;5016241;28;45339;-68
2022/03/22 07:06:11;;;;;;;;;39.67;36.00;;;;;7.83;56.53;100778.50;5015857;28;45432;-68
2022/03/22 07:08:37;;;;;;;;;34.00;32.33;;;;;7.87;56.26;100782.00;5015142;28;45446;-68
2022/03/22 07:13:46;;;;;;;;;37.33;31.67;;;;;7.83;56.38;100780.25;5016143;28;45453;-68
2022/03/22 07:16:12;;;;;;;;;44.67;37.00;;;;;7.80;56.45;100775.88;5015589;28;45576;-69
2022/03/22 07:18:37;;;;;;;;;40.67;36.67;;;;;7.81;56.48;100782.00;5015684;28;45424;-69
2022/03/22 07:21:04;;;;;;;;;41.00;37.00;;;;;7.83;56.54;100769.75;5014248;28;47361;-69
2022/03/22 07:23:30;;;;;;;;;45.67;35.33;;;;;7.83;56.30;100772.38;5015360;28;45358;-68
2022/03/22 07:25:56;;;;;;;;;45.33;37.67;;;;;7.81;56.55;100767.13;5013897;28;45473;-68
2022/03/22 07:28:21;;;;;;;;;44.00;37.33;;;;;7.81;56.37;100777.63;5014573;28;45455;-67
2022/03/22 07:30:47;;;;;;;;;41.00;34.00;;;;;7.86;56.19;100775.88;5015017;28;45453;-68
2022/03/22 07:33:13;;;;;;;;;45.67;37.67;;;;;7.93;56.84;100771.44;5015667;28;45331;-66
2022/03/22 07:35:38;;;;;;;;;48.00;36.67;;;;;8.02;56.72;100777.56;5014303;28;45545;-67
2022/03/22 07:38:04;;;;;;;;;43.33;38.00;;;;;8.10;56.81;100777.53;5014459;28;45441;-70
2022/03/22 07:40:29;;;;;;;;;50.33;39.33;;;;;8.17;57.01;100786.28;5014388;28;46283;-69
2022/03/22 07:42:55;;;;;;;;;45.67;39.00;;;;;8.23;57.54;100787.09;5013798;28;45421;-68
2022/03/22 07:45:20;;;;;;;;;50.33;38.67;;;;;8.31;57.05;100787.09;5014790;28;45382;-69
2022/03/22 07:47:46;;;;;;;;;51.00;39.67;;;;;8.37;57.34;100787.09;5013690;28;45560;-70
2022/03/22 07:53:01;;;;;;;;;39.00;32.00;;;;;8.48;56.38;100782.66;5013487;28;45489;-71
2022/03/22 07:55:30;;;;;;;;;44.67;36.67;;;;;8.52;55.87;100781.78;4997109;28;45514;-70
2022/03/22 07:57:57;;;;;;;;;45.33;37.33;;;;;8.58;55.78;100780.84;5013892;28;46292;-69
2022/03/22 08:00:23;;;;;;;;;43.67;37.67;;;;;8.59;55.37;100775.56;5014788;28;46316;-69
2022/03/22 08:02:55;;;;;;;;;46.00;37.00;;;;;8.59;55.32;100777.34;5015394;28;45410;-69
2022/03/22 08:05:22;;;;;;;;;32.67;30.00;;;;;8.56;55.42;100778.22;5014347;28;45450;-70
2022/03/22 08:07:48;;;;;;;;;45.00;36.33;;;;;8.59;55.30;100774.69;5014483;28;45588;-70
2022/03/22 08:10:14;;;;;;;;;43.00;36.67;;;;;8.61;55.18;100776.44;5014722;28;45400;-69
2022/03/22 08:12:40;;;;;;;;;43.00;36.00;;;;;8.65;55.01;100782.56;5014894;28;45395;-71
2022/03/22 08:15:07;;;;;;;;;43.67;34.67;;;;;8.68;55.14;100777.31;5015648;28;45467;-71
2022/03/22 08:17:32;;;;;;;;;47.67;38.00;;;;;8.72;54.74;100776.38;5013861;28;45592;-71
2022/03/22 08:19:58;;;;;;;;;42.67;36.67;;;;;8.78;54.81;100778.09;5013633;28;47048;-69
2022/03/22 08:22:23;;;;;;;;;51.00;40.00;;;;;8.83;54.70;100777.19;5014163;28;45370;-70
2022/03/22 08:24:49;;;;;;;;;46.67;37.00;;;;;8.91;54.27;100775.38;5015457;28;45401;-69
2022/03/22 08:27:14;;;;;;;;;49.33;40.67;;;;;9.00;54.62;100779.72;5014681;28;45488;-70
2022/03/22 08:29:40;;;;;;;;;52.00;41.67;;;;;9.04;54.36;100777.06;5014892;28;45370;-70
2022/03/22 08:32:05;;;;;;;;;50.67;37.33;;;;;9.10;54.26;100781.38;5014775;28;45426;-70
2022/03/22 08:34:31;;;;;;;;;45.67;38.33;;;;;9.18;54.50;100786.59;5015829;28;45409;-70
2022/03/22 08:36:56;;;;;;;;;50.67;42.67;;;;;9.27;54.18;100770.72;5014462;28;45406;-70
2022/03/22 08:39:22;;;;;;;;;49.33;39.67;;;;;9.35;54.59;100771.53;5015179;28;46055;-70
2022/03/22 08:41:47;;;;;;;;;52.33;40.00;;;;;9.43;54.51;100759.19;5014879;28;45429;-70
2022/03/22 08:44:13;;;;;;;;;54.00;43.00;;;;;9.50;54.53;100762.63;5014498;28;45442;-70
2022/03/22 08:46:38;;;;;;;;;49.67;40.67;;;;;9.55;54.80;100763.47;5013630;28;45457;-70
2022/03/22 08:49:04;;;;;;;;;52.00;41.67;;;;;9.60;54.58;100761.66;5015034;28;45936;-70
2022/03/22 08:51:30;;;;;;;;;51.00;41.67;;;;;9.65;54.88;100755.47;5013977;28;45374;-70
2022/03/22 08:53:56;;;;;;;;;54.00;42.33;;;;;9.75;54.78;100758.84;5014648;28;45466;-70
2022/03/22 08:56:25;;;;;;;;;55.33;41.67;;;;;9.88;54.44;100759.63;4996867;28;45625;-70
2022/03/22 08:58:52;;;;;;;;;59.00;46.33;;;;;9.98;54.34;100750.72;5014302;28;46448;-70
2022/03/22 09:01:22;;;;;;;;;45.67;37.33;;;;;10.06;54.39;100754.09;5014207;28;45466;-69
2022/03/22 09:06:07;;;;;;;;;44.00;37.67;;;;;10.15;54.44;100756.66;5014757;28;45386;-70
2022/03/22 09:06:32;;;;;;;;;53.00;41.67;;;;;10.24;54.60;100753.91;5013382;28;45622;-70
2022/03/22 09:08:58;;;;;;;;;46.67;39.33;;;;;10.31;54.52;100750.31;5013930;28;46509;-69
2022/03/22 09:11:23;;;;;;;;;49.33;40.33;;;;;10.37;54.19;100750.25;5014022;28;45483;-70
2022/03/22 09:13:49;;;;;;;;;48.33;37.33;;;;;10.43;54.46;100744.00;5014705;28;45374;-70
2022/03/22 09:16:15;;;;;;;;;43.33;35.67;;;;;10.48;54.23;100743.06;5013799;28;45680;-69
2022/03/22 09:18:41;;;;;;;;;44.67;38.00;;;;;10.56;53.96;100734.19;5014809;28;45524;-70
2022/03/22 09:21:08;;;;;;;;;49.67;39.67;;;;;10.63;53.62;100733.19;5013867;28;45354;-69
2022/03/22 09:23:33;;;;;;;;;47.33;37.67;;;;;10.69;53.27;100733.97;5013622;28;45397;-69
2022/03/22 09:25:59;;;;;;;;;45.33;37.00;;;;;10.72;53.09;100722.53;5013393;28;45345;-69
2022/03/22 09:28:24;;;;;;;;;45.00;35.67;;;;;10.76;53.14;100717.16;5014353;28;45363;-67
2022/03/22 09:30:50;;;;;;;;;40.67;35.33;;;;;10.83;53.30;100723.22;5012208;28;45397;-67
2022/03/22 09:33:16;;;;;;;;;46.67;38.67;;;;;10.83;52.38;100725.84;5014375;28;45477;-67
2022/03/22 09:35:42;;;;;;;;;42.67;37.00;;;;;10.78;52.30;100719.78;5012513;28;45566;-67
2022/03/22 09:38:07;;;;;;;;;46.67;39.67;;;;;10.76;52.48;100717.16;5013896;28;45354;-67
2022/03/22 09:40:33;;;;;;;;;43.00;34.00;;;;;10.78;52.37;100718.00;4996019;28;45210;-67
2022/03/22 09:42:59;;;;;;;;;41.00;36.00;;;;;10.81;52.25;100712.69;4996560;28;45344;-67
2022/03/22 09:45:26;;;;;;;;;45.67;34.67;;;;;10.87;52.13;100708.22;5011716;28;45568;-67
2022/03/22 09:47:53;;;;;;;;;42.67;36.00;;;;;10.91;51.90;100709.88;5012334;28;45454;-66
2022/03/22 09:50:20;;;;;;;;;48.33;38.00;;;;;10.94;51.58;100705.44;5013505;28;45375;-66
2022/03/22 09:52:45;;;;;;;;;47.67;38.00;;;;;11.02;51.51;100697.41;5013203;28;45451;-67
2022/03/22 09:55:16;;;;;;;;;43.67;35.00;;;;;11.07;51.25;100699.06;5012104;28;45299;-67
2022/03/22 09:57:42;;;;;;;;;42.67;35.00;;;;;11.12;51.32;100702.50;5013973;28;46609;-67
2022/03/22 10:00:09;;;;;;;;;36.67;33.00;;;;;11.21;51.64;100696.22;5016872;28;45431;-67
2022/03/22 10:02:35;;;;;;;;;41.33;35.67;;;;;11.29;50.87;100690.78;5017474;28;45361;-67
2022/03/22 10:05:03;;;;;;;;;41.00;35.00;;;;;11.32;51.30;100686.31;5032677;28;45730;-67
2022/03/22 10:07:29;;;;;;;;;43.33;35.00;;;;;11.35;50.62;100680.13;5010735;28;45805;-67
2022/03/22 10:10:02;;;;;;;;;48.00;34.33;;;;;11.41;50.87;100683.50;5017897;28;45307;-66
2022/03/22 10:12:33;;;;;;;;;39.67;34.00;;;;;11.47;49.87;100677.25;5017537;28;45480;-66
2022/03/22 10:15:15;;;;;;;;;44.00;37.00;;;;;11.54;50.11;100684.16;5017215;28;45390;-66
2022/03/22 10:17:43;;;;;;;;;36.67;33.67;;;;;11.61;50.02;100671.69;5013845;28;45506;-66
2022/03/22 10:20:19;;;;;;;;;38.00;32.67;;;;;11.66;49.86;100669.84;5016751;28;45533;-66
2022/03/22 10:22:45;;;;;;;;;37.33;32.00;;;;;11.73;49.72;100674.09;5010802;28;45544;-66
2022/03/22 10:25:10;;;;;;;;;35.67;32.00;;;;;11.81;49.98;100661.63;5008723;28;45426;-66
2022/03/22 10:27:37;;;;;;;;;37.00;33.67;;;;;11.88;49.10;100660.63;5016989;28;45432;-67
2022/03/22 10:30:06;;;;;;;;;40.33;34.33;;;;;11.92;48.36;100658.75;5017373;28;45247;-66
2022/03/22 10:32:38;;;;;;;;;37.67;31.33;;;;;11.95;48.55;100656.06;5017011;28;45540;-67
2022/03/22 10:35:20;;;;;;;;;36.00;31.33;;;;;11.97;47.86;100659.53;5017219;28;45453;-66
2022/03/22 10:37:47;;;;;;;;;40.67;34.33;;;;;12.04;48.56;100650.59;5016237;28;45455;-66
2022/03/22 10:40:26;;;;;;;;;20.33;20.33;;;;;12.11;47.43;100638.97;5016438;28;45243;-66
2022/03/22 10:42:53;;;;;;;;;36.67;33.33;;;;;12.19;46.36;100634.38;5017023;28;45462;-66
2022/03/22 10:45:19;;;;;;;;;41.00;33.00;;;;;12.31;46.70;100630.59;4997979;28;45540;-66
2022/03/22 10:47:45;;;;;;;;;44.00;32.33;;;;;12.41;45.96;100619.75;5016468;28;45989;-67
2022/03/22 10:50:12;;;;;;;;;36.33;28.33;;;;;12.54;45.71;100612.41;5015731;28;45464;-67
2022/03/22 10:52:48;;;;;;;;;38.67;34.00;;;;;12.67;45.17;100607.69;5016060;28;45296;-66
2022/03/22 10:55:20;;;;;;;;;41.33;31.67;;;;;12.79;46.26;100605.59;5015861;28;45572;-68
2022/03/22 10:57:48;;;;;;;;;33.00;30.67;;;;;12.88;44.90;100609.78;4999051;28;45415;-67
2022/03/22 11:00:14;;;;;;;;;34.33;31.00;;;;;12.91;44.64;100605.25;5016096;28;45371;-67
2022/03/22 11:02:41;;;;;;;;;35.33;30.67;;;;;12.99;44.57;100604.22;5016256;28;45448;-67
2022/03/22 11:05:08;;;;;;;;;35.00;30.67;;;;;13.07;43.94;100600.44;5015452;28;45611;-69
2022/03/22 11:07:35;;;;;;;;;36.67;31.67;;;;;13.14;44.69;100596.72;5021230;28;45411;-69
2022/03/22 11:10:01;;;;;;;;;39.67;33.00;;;;;13.17;44.08;100596.69;5002186;28;45224;-68
2022/03/22 11:12:30;;;;;;;;;35.33;32.00;;;;;13.22;44.56;100588.63;5014368;28;45474;-68
2022/03/22 11:14:58;;;;;;;;;37.00;32.33;;;;;13.28;44.40;100586.66;5016114;28;45429;-68
2022/03/22 11:17:27;;;;;;;;;32.33;28.33;;;;;13.32;44.20;100576.84;5014993;28;45373;-68
2022/03/22 11:19:59;;;;;;;;;40.00;32.67;;;;;13.33;44.10;100577.72;5016035;28;45312;-68
2022/03/22 11:22:24;;;;;;;;;37.00;32.67;;;;;13.35;44.85;100574.13;5015079;28;45402;-67
2022/03/22 11:24:49;;;;;;;;;35.67;31.67;;;;;13.39;43.61;100570.47;5016169;28;45405;-67
2022/03/22 11:27:15;;;;;;;;;39.33;32.67;;;;;13.43;43.26;100561.50;5014936;28;46371;-68
2022/03/22 11:29:41;;;;;;;;;25.00;23.00;;;;;13.46;43.03;100553.47;5015926;28;45505;-68
2022/03/22 11:34:57;;;;;;;;;38.33;33.00;;;;;13.51;42.75;100543.63;5016113;28;45296;-69
2022/03/22 11:37:33;;;;;;;;;37.33;32.00;;;;;13.53;42.35;100543.59;5015279;28;45434;-69
2022/03/22 11:42:57;;;;;;;;;32.00;28.67;;;;;13.65;42.94;100532.59;5016129;28;45331;-68